createdAt,value
2023-12-01T00:00:30.447Z,0.12
2023-12-01T00:02:57.243Z,0.13
2023-12-01T00:05:23.907Z,0.14
2023-12-01T00:07:50.493Z,0.13
2023-12-01T00:10:17.133Z,0.12
2023-12-01T00:12:43.881Z,0.11
2023-12-01T00:15:10.685Z,0.13
2023-12-01T00:17:37.395Z,0.13
2023-12-01T00:20:04.422Z,0.14
2023-12-01T00:22:31.058Z,0.12
2023-12-01T00:24:57.626Z,0.12
2023-12-01T00:27:24.331Z,0.13
2023-12-01T00:29:51.124Z,0.12
2023-12-01T00:32:17.746Z,0.14
2023-12-01T00:34:44.691Z,0.15
2023-12-01T00:37:11.476Z,0.14
2023-12-01T00:39:38.192Z,0.15
2023-12-01T00:42:04.942Z,0.17
2023-12-01T00:44:31.524Z,0.16
2023-12-01T00:46:58.404Z,0.16
2023-12-01T00:49:25.011Z,0.17
2023-12-01T00:51:51.733Z,0.16
2023-12-01T00:54:18.462Z,0.17
2023-12-01T00:56:47.112Z,0.18
2023-12-01T00:59:13.976Z,0.17
2023-12-01T01:01:40.696Z,0.17
2023-12-01T01:04:08.538Z,0.18
2023-12-01T01:06:36.343Z,0.20
2023-12-01T01:09:03.123Z,0.19
2023-12-01T01:11:29.730Z,0.19
2023-12-01T01:13:57.002Z,0.19
2023-12-01T01:16:24.208Z,0.18
2023-12-01T01:18:51.000Z,0.19
2023-12-01T01:21:18.275Z,0.20
2023-12-01T01:23:44.930Z,0.21
2023-12-01T01:26:11.603Z,0.22
2023-12-01T01:28:38.225Z,0.23
2023-12-01T01:31:05.046Z,0.24
2023-12-01T01:33:32.195Z,0.26
2023-12-01T01:35:58.953Z,0.26
2023-12-01T01:38:25.615Z,0.27
2023-12-01T01:40:52.224Z,0.27
2023-12-01T01:43:24.952Z,0.27
2023-12-01T01:46:06.164Z,0.25
2023-12-01T01:48:34.595Z,0.26
2023-12-01T01:51:02.048Z,0.26
2023-12-01T01:53:29.036Z,0.26
2023-12-01T01:55:59.445Z,0.26
2023-12-01T01:58:27.172Z,0.24
2023-12-01T02:00:54.851Z,0.26
2023-12-01T02:03:22.593Z,0.26
2023-12-01T02:05:49.460Z,0.25
2023-12-01T02:08:29.742Z,0.25
2023-12-01T02:10:58.608Z,0.24
2023-12-01T02:13:25.657Z,0.23
2023-12-01T02:15:53.286Z,0.21
2023-12-01T02:18:20.965Z,0.21
2023-12-01T02:20:47.686Z,0.21
2023-12-01T02:23:14.286Z,0.21
2023-12-01T02:25:40.883Z,0.21
2023-12-01T02:28:07.609Z,0.21
2023-12-01T02:30:34.342Z,0.20
2023-12-01T02:33:01.308Z,0.20
2023-12-01T02:35:30.947Z,0.19
2023-12-01T02:37:58.879Z,0.21
2023-12-01T02:40:26.464Z,0.19
2023-12-01T02:42:54.344Z,0.20
2023-12-01T02:45:22.376Z,0.21
2023-12-01T02:47:50.718Z,0.22
2023-12-01T02:50:18.702Z,0.21
2023-12-01T02:52:45.906Z,0.23
2023-12-01T02:55:12.900Z,0.23
2023-12-01T02:57:43.145Z,0.25
2023-12-01T03:00:19.386Z,0.26
2023-12-01T03:02:48.052Z,0.27
2023-12-01T03:05:14.658Z,0.28
2023-12-01T03:07:41.867Z,0.28
2023-12-01T03:10:09.374Z,0.27
2023-12-01T03:12:37.300Z,0.28
2023-12-01T03:15:09.950Z,0.27
2023-12-01T03:17:38.759Z,0.28
2023-12-01T03:20:11.449Z,0.28
2023-12-01T03:22:39.624Z,0.28
2023-12-01T03:25:13.435Z,0.29
2023-12-01T03:27:42.373Z,0.28
2023-12-01T03:30:17.724Z,0.25
2023-12-01T03:32:49.814Z,0.28
2023-12-01T03:35:26.369Z,0.27
2023-12-01T03:37:57.581Z,0.26
2023-12-01T03:40:26.506Z,0.26
2023-12-01T03:42:53.572Z,0.26
2023-12-01T03:45:20.489Z,0.25
2023-12-01T03:47:49.240Z,0.27
2023-12-01T03:50:19.791Z,0.26
2023-12-01T03:52:48.107Z,0.27
2023-12-01T03:55:15.348Z,0.27
2023-12-01T03:57:44.255Z,0.26
2023-12-01T04:00:16.350Z,0.26
2023-12-01T04:02:46.332Z,0.27
2023-12-01T04:05:24.433Z,0.26
2023-12-01T04:07:57.038Z,0.28
2023-12-01T04:10:27.341Z,0.28
2023-12-01T04:12:56.016Z,0.29
2023-12-01T04:15:26.262Z,0.28
2023-12-01T04:17:54.001Z,0.28
2023-12-01T04:20:27.162Z,0.29
2023-12-01T04:22:57.237Z,0.29
2023-12-01T04:25:24.336Z,0.30
2023-12-01T04:27:52.870Z,0.31
2023-12-01T04:30:21.690Z,0.30
2023-12-01T04:32:55.259Z,0.49
2023-12-01T04:35:24.535Z,0.65
2023-12-01T04:37:51.495Z,0.65
2023-12-01T04:40:18.547Z,0.62
2023-12-01T04:42:46.659Z,0.57
2023-12-01T04:45:18.015Z,0.53
2023-12-01T04:47:46.242Z,0.49
2023-12-01T04:50:15.296Z,0.45
2023-12-01T04:52:43.459Z,0.41
2023-12-01T04:55:14.921Z,0.38
2023-12-01T04:57:42.771Z,0.37
2023-12-01T05:00:21.213Z,0.35
2023-12-01T05:02:56.348Z,0.33
2023-12-01T05:05:24.787Z,0.30
2023-12-01T05:07:53.855Z,0.27
2023-12-01T05:10:23.396Z,0.25
2023-12-01T05:12:52.064Z,0.24
2023-12-01T05:15:21.588Z,0.22
2023-12-01T05:17:50.342Z,0.21
2023-12-01T05:20:18.034Z,0.21
2023-12-01T05:22:52.177Z,0.20
2023-12-01T05:25:21.997Z,0.18
2023-12-01T05:27:51.480Z,0.18
2023-12-01T05:30:20.063Z,0.18
2023-12-01T05:32:51.318Z,0.18
2023-12-01T05:35:19.183Z,0.19
2023-12-01T05:37:50.300Z,0.17
2023-12-01T05:40:37.935Z,0.19
2023-12-01T05:43:06.771Z,0.19
2023-12-01T05:45:34.668Z,0.19
2023-12-01T05:48:04.160Z,0.18
2023-12-01T05:50:32.733Z,0.18
2023-12-01T05:53:01.507Z,0.18
2023-12-01T05:55:29.760Z,0.19
2023-12-01T05:58:00.056Z,0.19
2023-12-01T06:00:32.166Z,0.20
2023-12-01T06:03:10.453Z,0.21
2023-12-01T06:05:38.684Z,0.21
2023-12-01T06:08:06.978Z,0.21
2023-12-01T06:10:34.509Z,0.21
2023-12-01T06:13:02.058Z,0.22
2023-12-01T06:15:32.176Z,0.21
2023-12-01T06:18:00.328Z,0.21
2023-12-01T06:20:27.609Z,0.21
2023-12-01T06:22:59.118Z,0.23
2023-12-01T06:25:31.110Z,0.21
2023-12-01T06:28:00.206Z,0.21
2023-12-01T06:30:30.183Z,0.19
2023-12-01T06:32:57.305Z,0.19
2023-12-01T06:35:24.313Z,0.18
2023-12-01T06:37:51.160Z,0.15
2023-12-01T06:40:20.139Z,0.15
2023-12-01T06:42:49.606Z,0.13
2023-12-01T06:45:20.871Z,0.12
2023-12-01T06:47:49.541Z,0.10
2023-12-01T06:50:17.657Z,0.10
2023-12-01T06:52:46.362Z,0.10
2023-12-01T06:55:13.242Z,0.10
2023-12-01T06:57:42.893Z,0.10
2023-12-01T07:00:11.925Z,0.11
2023-12-01T07:02:39.175Z,0.11
2023-12-01T07:05:07.712Z,0.09
2023-12-01T07:07:34.378Z,0.10
2023-12-01T07:10:01.115Z,0.09
2023-12-01T07:12:27.837Z,0.10
2023-12-01T07:14:54.457Z,0.12
2023-12-01T07:17:21.845Z,0.13
2023-12-01T07:19:48.522Z,0.13
2023-12-01T07:22:15.476Z,0.13
2023-12-01T07:24:42.463Z,0.13
2023-12-01T07:27:11.192Z,0.12
2023-12-01T07:29:40.120Z,0.12
2023-12-01T07:32:08.222Z,0.11
2023-12-01T07:34:35.309Z,0.09
2023-12-01T07:37:02.029Z,0.09
2023-12-01T07:39:28.636Z,0.08
2023-12-01T07:41:57.652Z,0.08
2023-12-01T07:44:24.455Z,0.08
2023-12-01T07:46:51.126Z,0.05
2023-12-01T07:49:17.770Z,0.10
2023-12-01T07:51:44.593Z,0.18
2023-12-01T07:54:11.320Z,0.21
2023-12-01T07:56:38.486Z,0.20
2023-12-01T07:59:06.749Z,0.16
2023-12-01T08:01:33.468Z,0.14
2023-12-01T08:04:00.224Z,0.11
2023-12-01T08:06:29.023Z,0.10
2023-12-01T08:08:55.715Z,0.09
2023-12-01T08:11:22.328Z,0.08
2023-12-01T08:13:51.068Z,0.08
2023-12-01T08:16:17.768Z,0.06
2023-12-01T08:18:44.460Z,0.06
2023-12-01T08:21:12.470Z,0.05
2023-12-01T08:23:39.202Z,0.02
2023-12-01T08:26:08.403Z,0.03
2023-12-01T08:28:35.004Z,0.02
2023-12-01T08:31:01.786Z,0.02
2023-12-01T08:33:28.491Z,0.04
2023-12-01T08:35:55.428Z,0.05
2023-12-01T08:38:22.865Z,0.06
2023-12-01T08:40:54.738Z,0.07
2023-12-01T08:43:22.085Z,0.06
2023-12-01T08:45:48.879Z,0.06
2023-12-01T08:48:15.635Z,0.08
2023-12-01T08:50:42.334Z,0.07
2023-12-01T08:53:09.312Z,0.09
2023-12-01T08:55:35.951Z,0.08
2023-12-01T08:58:03.284Z,0.05
2023-12-01T09:00:29.899Z,0.08
2023-12-01T09:02:58.505Z,0.06
2023-12-01T09:05:25.799Z,0.07
2023-12-01T09:07:52.464Z,0.08
2023-12-01T09:10:23.632Z,0.07
2023-12-01T09:12:51.591Z,0.06
2023-12-01T09:15:18.448Z,0.08
2023-12-01T09:17:45.169Z,0.10
2023-12-01T09:20:12.252Z,0.13
2023-12-01T09:22:38.906Z,0.14
2023-12-01T09:25:07.936Z,0.16
2023-12-01T09:27:37.235Z,0.18
2023-12-01T09:30:08.465Z,0.20
2023-12-01T09:32:35.198Z,0.19
2023-12-01T09:35:01.830Z,0.19
2023-12-01T09:37:28.385Z,0.16
2023-12-01T09:39:55.361Z,0.16
2023-12-01T09:42:24.357Z,0.13
2023-12-01T09:44:54.876Z,0.12
2023-12-01T09:47:25.682Z,0.12
2023-12-01T09:49:52.771Z,0.13
2023-12-01T09:52:19.613Z,0.14
2023-12-01T09:55:06.824Z,0.15
2023-12-01T09:57:32.886Z,0.15
2023-12-01T09:59:59.912Z,0.17
2023-12-01T10:02:26.695Z,0.18
2023-12-01T10:05:01.988Z,0.19
2023-12-01T10:07:28.618Z,0.19
2023-12-01T10:09:55.353Z,0.20
2023-12-01T10:12:22.000Z,0.21
2023-12-01T10:14:49.119Z,0.23
2023-12-01T10:17:15.812Z,0.26
2023-12-01T10:19:49.362Z,0.25
2023-12-01T10:22:20.740Z,0.26
2023-12-01T10:25:06.851Z,0.27
2023-12-01T10:27:36.189Z,0.28
2023-12-01T10:30:13.396Z,0.26
2023-12-01T10:32:41.862Z,0.28
2023-12-01T10:35:09.108Z,0.29
2023-12-01T10:37:39.118Z,0.29
2023-12-01T10:40:06.766Z,0.29
2023-12-01T10:42:34.794Z,0.29
2023-12-01T10:45:03.169Z,0.30
2023-12-01T10:47:30.749Z,0.30
2023-12-01T10:50:00.698Z,0.31
2023-12-01T10:52:27.276Z,0.31
2023-12-01T10:54:54.676Z,0.31
2023-12-01T10:57:37.269Z,0.33
2023-12-01T11:00:05.642Z,0.33
2023-12-01T11:02:34.971Z,0.32
2023-12-01T11:05:03.299Z,0.33
2023-12-01T11:07:52.820Z,0.31
2023-12-01T11:10:27.205Z,0.31
2023-12-01T11:13:13.020Z,0.32
2023-12-01T11:15:42.784Z,0.31
2023-12-01T11:18:09.796Z,0.30
2023-12-01T11:20:47.994Z,0.30
2023-12-01T11:23:18.386Z,0.30
2023-12-01T11:25:50.145Z,0.30
2023-12-01T11:28:26.893Z,0.29
2023-12-01T11:31:24.883Z,0.29
2023-12-01T11:33:53.777Z,0.26
2023-12-01T11:36:30.935Z,0.27
2023-12-01T11:39:14.405Z,0.26
2023-12-01T11:41:48.624Z,0.22
2023-12-01T11:44:26.483Z,0.21
2023-12-01T11:47:04.943Z,0.20
2023-12-01T11:49:40.370Z,0.20
2023-12-01T11:52:16.417Z,0.20
2023-12-01T11:54:43.339Z,0.19
2023-12-01T11:57:12.122Z,0.17
2023-12-01T11:59:38.784Z,0.17
2023-12-01T12:02:06.431Z,0.16
2023-12-01T12:04:38.957Z,0.15
2023-12-01T12:07:06.487Z,0.16
2023-12-01T12:09:34.806Z,0.16
2023-12-01T12:12:03.190Z,0.15
2023-12-01T12:14:31.982Z,0.14
2023-12-01T12:17:00.999Z,0.11
2023-12-01T12:19:28.089Z,0.10
2023-12-01T12:21:55.464Z,0.11
2023-12-01T12:24:22.504Z,0.09
2023-12-01T12:26:58.922Z,0.08
2023-12-01T12:29:26.388Z,0.07
2023-12-01T12:31:53.320Z,0.07
2023-12-01T12:34:21.819Z,0.07
2023-12-01T12:36:51.896Z,0.07
2023-12-01T12:39:19.044Z,0.06
2023-12-01T12:42:00.440Z,0.04
2023-12-01T12:44:32.665Z,0.02
2023-12-01T12:47:02.237Z,0.00
2023-12-01T12:49:32.820Z,-0.03
2023-12-01T12:52:00.710Z,-0.06
2023-12-01T12:54:27.697Z,-0.08
2023-12-01T12:56:54.455Z,-0.10
2023-12-01T12:59:21.374Z,-0.11
2023-12-01T13:01:48.144Z,-0.12
2023-12-01T13:04:14.928Z,-0.13
2023-12-01T13:06:48.794Z,-0.12
2023-12-01T13:09:17.636Z,-0.13
2023-12-01T13:11:44.947Z,-0.13
2023-12-01T13:14:14.443Z,-0.15
2023-12-01T13:16:52.435Z,-0.15
2023-12-01T13:19:23.607Z,-0.16
2023-12-01T13:21:53.916Z,-0.17
2023-12-01T13:24:22.804Z,-0.15
2023-12-01T13:26:49.804Z,-0.16
2023-12-01T13:29:16.594Z,-0.18
2023-12-01T13:31:43.469Z,-0.19
2023-12-01T13:34:10.184Z,-0.20
2023-12-01T13:36:36.757Z,-0.22
2023-12-01T13:39:04.497Z,-0.24
2023-12-01T13:41:31.888Z,-0.24
2023-12-01T13:43:58.636Z,-0.27
2023-12-01T13:46:25.380Z,-0.29
2023-12-01T13:48:52.541Z,-0.32
2023-12-01T13:51:20.393Z,-0.35
2023-12-01T13:53:47.164Z,-0.36
2023-12-01T13:56:13.913Z,-0.38
2023-12-01T13:58:44.706Z,-0.40
2023-12-01T14:01:13.354Z,-0.43
2023-12-01T14:03:40.738Z,-0.46
2023-12-01T14:06:08.169Z,-0.43
2023-12-01T14:08:35.332Z,-0.45
2023-12-01T14:11:02.669Z,-0.47
2023-12-01T14:13:29.281Z,-0.49
2023-12-01T14:15:55.951Z,-0.49
2023-12-01T14:18:22.832Z,-0.52
2023-12-01T14:20:49.958Z,-0.54
2023-12-01T14:23:16.810Z,-0.54
2023-12-01T14:25:43.555Z,-0.56
2023-12-01T14:28:10.252Z,-0.59
2023-12-01T14:30:36.973Z,-0.60
2023-12-01T14:33:03.783Z,-0.61
2023-12-01T14:35:30.682Z,-0.65
2023-12-01T14:37:57.387Z,-0.64
2023-12-01T14:40:24.306Z,-0.65
2023-12-01T14:42:51.201Z,-0.66
2023-12-01T14:45:18.158Z,-0.67
2023-12-01T14:47:44.960Z,-0.54
2023-12-01T14:50:11.681Z,-0.38
2023-12-01T14:52:38.324Z,-0.35
2023-12-01T14:55:05.609Z,-0.38
2023-12-01T14:57:32.592Z,-0.43
2023-12-01T14:59:59.362Z,-0.50
2023-12-01T15:02:26.092Z,-0.55
2023-12-01T15:04:52.718Z,-0.58
2023-12-01T15:07:19.520Z,-0.63
2023-12-01T15:09:46.119Z,-0.68
2023-12-01T15:12:12.755Z,-0.70
2023-12-01T15:14:39.403Z,-0.75
2023-12-01T15:17:06.128Z,-0.77
2023-12-01T15:19:33.704Z,-0.79
2023-12-01T15:22:02.512Z,-0.79
2023-12-01T15:24:29.592Z,-0.82
2023-12-01T15:26:59.114Z,-0.83
2023-12-01T15:29:25.823Z,-0.83
2023-12-01T15:31:52.508Z,-0.83
2023-12-01T15:34:19.565Z,-0.82
2023-12-01T15:36:46.178Z,-0.81
2023-12-01T15:39:13.029Z,-0.83
2023-12-01T15:41:40.332Z,-0.83
2023-12-01T15:44:07.720Z,-0.81
2023-12-01T15:46:34.392Z,-0.83
2023-12-01T15:49:01.108Z,-0.80
2023-12-01T15:51:28.079Z,-0.79
2023-12-01T15:53:54.881Z,-0.78
2023-12-01T15:56:22.145Z,-0.77
2023-12-01T15:58:48.754Z,-0.77
2023-12-01T16:01:15.410Z,-0.77
2023-12-01T16:03:42.201Z,-0.75
2023-12-01T16:06:09.900Z,-0.75
2023-12-01T16:08:36.577Z,-0.74
2023-12-01T16:11:04.106Z,-0.74
2023-12-01T16:13:30.700Z,-0.73
2023-12-01T16:15:57.351Z,-0.72
2023-12-01T16:18:25.257Z,-0.71
2023-12-01T16:20:53.330Z,-0.69
2023-12-01T16:23:20.836Z,-0.68
2023-12-01T16:25:48.601Z,-0.69
2023-12-01T16:28:15.338Z,-0.69
2023-12-01T16:30:42.701Z,-0.71
2023-12-01T16:33:10.020Z,-0.74
2023-12-01T16:35:36.749Z,-0.74
2023-12-01T16:38:05.104Z,-0.74
2023-12-01T16:40:32.717Z,-0.75
2023-12-01T16:42:59.428Z,-0.76
2023-12-01T16:45:26.143Z,-0.75
2023-12-01T16:47:52.985Z,-0.74
2023-12-01T16:50:19.728Z,-0.75
2023-12-01T16:52:46.460Z,-0.75
2023-12-01T16:55:16.042Z,-0.73
2023-12-01T16:57:42.982Z,-0.74
2023-12-01T17:00:10.386Z,-0.74
2023-12-01T17:02:37.969Z,-0.74
2023-12-01T17:05:05.213Z,-0.74
2023-12-01T17:07:31.908Z,-0.74
2023-12-01T17:09:58.582Z,-0.73
2023-12-01T17:12:25.685Z,-0.70
2023-12-01T17:14:52.358Z,-0.70
2023-12-01T17:17:18.977Z,-0.66
2023-12-01T17:19:45.652Z,-0.67
2023-12-01T17:22:12.591Z,-0.65
2023-12-01T17:24:43.126Z,-0.67
2023-12-01T17:27:13.485Z,-0.68
2023-12-01T17:29:43.633Z,-0.69
2023-12-01T17:32:11.209Z,-0.71
2023-12-01T17:34:38.113Z,-0.75
2023-12-01T17:37:05.483Z,-0.78
2023-12-01T17:39:32.443Z,-0.82
2023-12-01T17:41:59.394Z,-0.84
2023-12-01T17:44:26.659Z,-0.87
2023-12-01T17:46:53.374Z,-0.87
2023-12-01T17:49:20.065Z,-0.88
2023-12-01T17:51:46.821Z,-0.86
2023-12-01T17:54:14.794Z,-0.84
2023-12-01T17:56:41.668Z,-0.84
2023-12-01T17:59:08.357Z,-0.81
2023-12-01T18:01:38.677Z,-0.80
2023-12-01T18:04:05.846Z,-0.79
2023-12-01T18:06:33.466Z,-0.78
2023-12-01T18:09:01.256Z,-0.77
2023-12-01T18:11:28.328Z,-0.74
2023-12-01T18:13:55.414Z,-0.74
2023-12-01T18:16:22.584Z,-0.73
2023-12-01T18:18:49.377Z,-0.70
2023-12-01T18:21:16.131Z,-0.71
2023-12-01T18:23:42.846Z,-0.66
2023-12-01T18:26:09.502Z,-0.65
2023-12-01T18:28:36.117Z,-0.63
2023-12-01T18:31:02.776Z,-0.60
2023-12-01T18:33:30.414Z,-0.57
2023-12-01T18:35:57.198Z,-0.56
2023-12-01T18:38:23.934Z,-0.55
2023-12-01T18:40:50.800Z,-0.52
2023-12-01T18:43:17.635Z,-0.51
2023-12-01T18:45:46.678Z,-0.47
2023-12-01T18:48:13.543Z,-0.46
2023-12-01T18:50:40.353Z,-0.43
2023-12-01T18:53:07.419Z,-0.42
2023-12-01T18:55:34.050Z,-0.42
2023-12-01T18:58:00.653Z,-0.43
2023-12-01T19:00:27.540Z,-0.45
2023-12-01T19:02:54.929Z,-0.45
2023-12-01T19:05:23.434Z,-0.45
2023-12-01T19:07:51.010Z,-0.44
2023-12-01T19:10:17.896Z,-0.46
2023-12-01T19:12:44.577Z,-0.44
2023-12-01T19:15:11.281Z,-0.46
2023-12-01T19:17:38.303Z,-0.45
2023-12-01T19:20:05.710Z,-0.45
2023-12-01T19:22:32.910Z,-0.44
2023-12-01T19:25:00.722Z,-0.44
2023-12-01T19:27:27.968Z,-0.43
2023-12-01T19:29:54.685Z,-0.43
2023-12-01T19:32:21.527Z,-0.40
2023-12-01T19:34:48.196Z,-0.38
2023-12-01T19:37:15.013Z,-0.34
2023-12-01T19:39:41.643Z,-0.32
2023-12-01T19:42:10.994Z,-0.29
2023-12-01T19:44:38.455Z,-0.27
2023-12-01T19:47:05.758Z,-0.27
2023-12-01T19:49:32.574Z,-0.28
2023-12-01T19:51:59.564Z,-0.27
2023-12-01T19:54:26.209Z,-0.31
2023-12-01T19:56:53.004Z,-0.31
2023-12-01T19:59:20.454Z,-0.33
2023-12-01T20:01:48.612Z,-0.31
2023-12-01T20:04:15.390Z,-0.32
2023-12-01T20:06:42.163Z,-0.32
2023-12-01T20:09:09.179Z,-0.32
2023-12-01T20:11:35.844Z,-0.34
2023-12-01T20:14:02.737Z,-0.35
2023-12-01T20:16:29.682Z,-0.36
2023-12-01T20:18:57.375Z,-0.38
2023-12-01T20:21:24.542Z,-0.38
2023-12-01T20:23:53.035Z,-0.42
2023-12-01T20:26:19.908Z,-0.44
2023-12-01T20:28:46.576Z,-0.46
2023-12-01T20:31:13.214Z,-0.50
2023-12-01T20:33:39.915Z,-0.52
2023-12-01T20:36:06.915Z,-0.54
2023-12-01T20:38:35.924Z,-0.55
2023-12-01T20:41:05.924Z,-0.58
2023-12-01T20:43:33.265Z,-0.58
2023-12-01T20:45:59.914Z,-0.59
2023-12-01T20:48:26.891Z,-0.61
2023-12-01T20:50:53.761Z,-0.63
2023-12-01T20:53:20.450Z,-0.63
2023-12-01T20:55:47.097Z,-0.63
2023-12-01T20:58:13.749Z,-0.65
2023-12-01T21:00:40.492Z,-0.64
2023-12-01T21:03:07.166Z,-0.67
2023-12-01T21:05:33.898Z,-0.66
2023-12-01T21:08:00.616Z,-0.68
2023-12-01T21:10:27.282Z,-0.68
2023-12-01T21:12:53.896Z,-0.68
2023-12-01T21:15:20.593Z,-0.69
2023-12-01T21:17:47.351Z,-0.69
2023-12-01T21:20:14.056Z,-0.71
2023-12-01T21:22:40.932Z,-0.70
2023-12-01T21:25:09.993Z,-0.72
2023-12-01T21:27:36.791Z,-0.74
2023-12-01T21:30:04.769Z,-0.73
2023-12-01T21:32:33.773Z,-0.72
2023-12-01T21:35:00.574Z,-0.74
2023-12-01T21:37:27.214Z,-0.78
2023-12-01T21:39:53.825Z,-0.77
2023-12-01T21:42:20.654Z,-0.80
2023-12-01T21:44:47.465Z,-0.79
2023-12-01T21:47:14.097Z,-0.79
2023-12-01T21:49:41.136Z,-0.80
2023-12-01T21:52:07.844Z,-0.81
2023-12-01T21:54:34.486Z,-0.80
2023-12-01T21:57:01.129Z,-0.81
2023-12-01T21:59:27.786Z,-0.83
2023-12-01T22:01:54.445Z,-0.83
2023-12-01T22:04:21.071Z,-0.84
2023-12-01T22:06:49.375Z,-0.84
2023-12-01T22:09:17.595Z,-0.83
2023-12-01T22:11:46.380Z,-0.84
2023-12-01T22:14:13.311Z,-0.83
2023-12-01T22:16:40.095Z,-0.83
2023-12-01T22:19:09.640Z,-0.82
2023-12-01T22:21:37.997Z,-0.83
2023-12-01T22:24:08.102Z,-0.83
2023-12-01T22:26:34.780Z,-0.83
2023-12-01T22:29:01.353Z,-0.85
2023-12-01T22:31:28.055Z,-0.85
2023-12-01T22:33:54.689Z,-0.86
2023-12-01T22:36:21.391Z,-0.86
2023-12-01T22:38:48.237Z,-0.87
2023-12-01T22:41:20.110Z,-0.88
2023-12-01T22:43:46.689Z,-0.88
2023-12-01T22:46:16.775Z,-0.90
2023-12-01T22:48:44.095Z,-0.91
2023-12-01T22:51:13.863Z,-0.92
2023-12-01T22:53:40.823Z,-0.95
2023-12-01T22:56:09.674Z,-0.96
2023-12-01T22:58:37.009Z,-0.97
2023-12-01T23:01:04.434Z,-0.96
2023-12-01T23:03:31.872Z,-0.95
2023-12-01T23:05:59.377Z,-0.96
2023-12-01T23:08:26.568Z,-0.97
2023-12-01T23:10:53.298Z,-0.98
2023-12-01T23:13:21.681Z,-1.01
2023-12-01T23:15:48.492Z,-1.01
2023-12-01T23:18:15.296Z,-1.01
2023-12-01T23:20:42.017Z,-0.97
2023-12-01T23:23:08.679Z,-0.90
2023-12-01T23:25:35.345Z,-0.87
2023-12-01T23:28:02.057Z,-0.87
2023-12-01T23:30:28.886Z,-0.90
2023-12-01T23:32:55.635Z,-0.92
2023-12-01T23:35:22.326Z,-0.93
2023-12-01T23:37:48.901Z,-0.94
2023-12-01T23:40:15.574Z,-0.96
2023-12-01T23:42:42.193Z,-0.98
2023-12-01T23:45:09.248Z,-0.99
2023-12-01T23:47:35.879Z,-0.98
2023-12-01T23:50:02.660Z,-1.00
2023-12-01T23:52:29.261Z,-0.99
2023-12-01T23:54:56.282Z,-1.00
2023-12-01T23:57:23.017Z,-1.02
2023-12-01T23:59:49.797Z,-1.05
